sensor_id;sensor_type;location;lat;lon;timestamp;P1;durP1;ratioP1;P2;durP2;ratioP2
37047;SDS011;23227;48.780;9.210;2023-05-14T00:00:52;11.07;;;6.28;;
37047;SDS011;23227;48.780;9.210;2023-05-14T00:03:54;9.07;;;6.40;;
37047;SDS011;23227;48.780;9.210;2023-05-14T00:06:59;8.98;;;6.43;;
37047;SDS011;23227;48.780;9.210;2023-05-14T00:10:01;10.07;;;6.30;;
37047;SDS011;23227;48.780;9.210;2023-05-14T00:13:04;8.98;;;6.32;;
37047;SDS011;23227;48.780;9.210;2023-05-14T00:16:07;10.40;;;6.97;;
37047;SDS011;23227;48.780;9.210;2023-05-14T00:19:09;9.45;;;6.93;;
37047;SDS011;23227;48.780;9.210;2023-05-14T00:22:14;9.85;;;7.50;;
37047;SDS011;23227;48.780;9.210;2023-05-14T00:25:16;10.70;;;6.77;;
37047;SDS011;23227;48.780;9.210;2023-05-14T00:28:19;8.65;;;5.95;;
37047;SDS011;23227;48.780;9.210;2023-05-14T00:31:21;10.02;;;7.03;;
37047;SDS011;23227;48.780;9.210;2023-05-14T00:34:24;11.85;;;6.65;;
37047;SDS011;23227;48.780;9.210;2023-05-14T00:37:28;11.23;;;6.90;;
37047;SDS011;23227;48.780;9.210;2023-05-14T00:40:31;10.03;;;6.80;;
37047;SDS011;23227;48.780;9.210;2023-05-14T00:43:34;10.82;;;7.75;;
37047;SDS011;23227;48.780;9.210;2023-05-14T00:46:37;10.10;;;7.22;;
37047;SDS011;23227;48.780;9.210;2023-05-14T00:49:39;10.87;;;7.50;;
37047;SDS011;23227;48.780;9.210;2023-05-14T00:52:44;8.95;;;6.78;;
37047;SDS011;23227;48.780;9.210;2023-05-14T00:55:47;11.17;;;7.20;;
37047;SDS011;23227;48.780;9.210;2023-05-14T00:58:51;10.97;;;7.40;;
37047;SDS011;23227;48.780;9.210;2023-05-14T01:01:53;11.00;;;7.95;;
37047;SDS011;23227;48.780;9.210;2023-05-14T01:04:56;11.07;;;7.88;;
37047;SDS011;23227;48.780;9.210;2023-05-14T01:08:01;11.20;;;7.28;;
37047;SDS011;23227;48.780;9.210;2023-05-14T01:11:08;10.10;;;7.60;;
37047;SDS011;23227;48.780;9.210;2023-05-14T01:14:23;11.20;;;7.20;;
37047;SDS011;23227;48.780;9.210;2023-05-14T01:17:30;10.37;;;7.03;;
37047;SDS011;23227;48.780;9.210;2023-05-14T01:20:34;10.47;;;7.33;;
37047;SDS011;23227;48.780;9.210;2023-05-14T01:23:39;9.38;;;7.00;;
37047;SDS011;23227;48.780;9.210;2023-05-14T01:26:41;9.17;;;7.20;;
37047;SDS011;23227;48.780;9.210;2023-05-14T01:29:45;10.53;;;7.33;;
37047;SDS011;23227;48.780;9.210;2023-05-14T01:32:52;11.70;;;6.87;;
37047;SDS011;23227;48.780;9.210;2023-05-14T01:35:56;9.60;;;6.87;;
37047;SDS011;23227;48.780;9.210;2023-05-14T01:39:03;10.73;;;6.85;;
37047;SDS011;23227;48.780;9.210;2023-05-14T01:42:09;11.33;;;7.43;;
37047;SDS011;23227;48.780;9.210;2023-05-14T01:45:12;10.75;;;7.80;;
37047;SDS011;23227;48.780;9.210;2023-05-14T01:48:14;11.75;;;7.70;;
37047;SDS011;23227;48.780;9.210;2023-05-14T01:51:17;13.05;;;7.95;;
37047;SDS011;23227;48.780;9.210;2023-05-14T01:54:21;12.53;;;7.90;;
37047;SDS011;23227;48.780;9.210;2023-05-14T01:57:24;9.33;;;7.33;;
37047;SDS011;23227;48.780;9.210;2023-05-14T02:00:26;12.27;;;7.73;;
37047;SDS011;23227;48.780;9.210;2023-05-14T02:03:29;13.82;;;8.48;;
37047;SDS011;23227;48.780;9.210;2023-05-14T02:06:32;10.00;;;7.17;;
37047;SDS011;23227;48.780;9.210;2023-05-14T02:09:36;9.52;;;7.53;;
37047;SDS011;23227;48.780;9.210;2023-05-14T02:12:40;11.83;;;7.63;;
37047;SDS011;23227;48.780;9.210;2023-05-14T02:15:42;10.63;;;7.67;;
37047;SDS011;23227;48.780;9.210;2023-05-14T02:18:45;12.50;;;8.03;;
37047;SDS011;23227;48.780;9.210;2023-05-14T02:21:48;10.67;;;7.57;;
37047;SDS011;23227;48.780;9.210;2023-05-14T02:24:52;11.15;;;7.60;;
37047;SDS011;23227;48.780;9.210;2023-05-14T02:27:55;10.87;;;8.43;;
37047;SDS011;23227;48.780;9.210;2023-05-14T02:30:57;14.50;;;8.80;;
37047;SDS011;23227;48.780;9.210;2023-05-14T02:34:02;18.10;;;9.52;;
37047;SDS011;23227;48.780;9.210;2023-05-14T02:37:05;10.93;;;8.00;;
37047;SDS011;23227;48.780;9.210;2023-05-14T02:40:09;13.65;;;8.15;;
37047;SDS011;23227;48.780;9.210;2023-05-14T02:43:12;11.13;;;7.93;;
37047;SDS011;23227;48.780;9.210;2023-05-14T02:46:15;11.40;;;8.23;;
37047;SDS011;23227;48.780;9.210;2023-05-14T02:49:17;13.57;;;8.05;;
37047;SDS011;23227;48.780;9.210;2023-05-14T02:52:20;12.27;;;8.57;;
37047;SDS011;23227;48.780;9.210;2023-05-14T02:55:24;12.57;;;9.03;;
37047;SDS011;23227;48.780;9.210;2023-05-14T02:58:27;10.60;;;8.03;;
37047;SDS011;23227;48.780;9.210;2023-05-14T03:01:30;12.15;;;8.02;;
37047;SDS011;23227;48.780;9.210;2023-05-14T03:04:33;11.57;;;8.18;;
37047;SDS011;23227;48.780;9.210;2023-05-14T03:07:36;12.27;;;8.25;;
37047;SDS011;23227;48.780;9.210;2023-05-14T03:10:40;13.23;;;7.97;;
37047;SDS011;23227;48.780;9.210;2023-05-14T03:13:43;11.33;;;7.90;;
37047;SDS011;23227;48.780;9.210;2023-05-14T03:16:45;11.53;;;7.23;;
37047;SDS011;23227;48.780;9.210;2023-05-14T03:19:48;9.13;;;6.93;;
37047;SDS011;23227;48.780;9.210;2023-05-14T03:22:51;13.37;;;6.90;;
37047;SDS011;23227;48.780;9.210;2023-05-14T03:25:55;8.48;;;5.97;;
37047;SDS011;23227;48.780;9.210;2023-05-14T03:28:58;8.47;;;5.53;;
37047;SDS011;23227;48.780;9.210;2023-05-14T03:32:01;8.90;;;5.97;;
37047;SDS011;23227;48.780;9.210;2023-05-14T03:35:04;7.78;;;5.80;;
37047;SDS011;23227;48.780;9.210;2023-05-14T03:38:08;10.47;;;6.33;;
37047;SDS011;23227;48.780;9.210;2023-05-14T03:41:12;10.55;;;6.95;;
37047;SDS011;23227;48.780;9.210;2023-05-14T03:44:14;11.70;;;6.97;;
37047;SDS011;23227;48.780;9.210;2023-05-14T03:47:17;8.20;;;5.60;;
37047;SDS011;23227;48.780;9.210;2023-05-14T03:50:20;8.68;;;6.80;;
37047;SDS011;23227;48.780;9.210;2023-05-14T03:53:25;8.23;;;6.57;;
37047;SDS011;23227;48.780;9.210;2023-05-14T03:56:29;12.18;;;6.20;;
37047;SDS011;23227;48.780;9.210;2023-05-14T03:59:32;8.60;;;6.37;;
37047;SDS011;23227;48.780;9.210;2023-05-14T04:02:34;12.80;;;6.60;;
37047;SDS011;23227;48.780;9.210;2023-05-14T04:05:37;9.90;;;6.72;;
37047;SDS011;23227;48.780;9.210;2023-05-14T04:08:40;8.33;;;6.23;;
37047;SDS011;23227;48.780;9.210;2023-05-14T04:11:44;11.43;;;6.13;;
37047;SDS011;23227;48.780;9.210;2023-05-14T04:14:46;9.80;;;6.50;;
37047;SDS011;23227;48.780;9.210;2023-05-14T04:17:49;7.77;;;6.20;;
37047;SDS011;23227;48.780;9.210;2023-05-14T04:20:51;8.33;;;6.13;;
37047;SDS011;23227;48.780;9.210;2023-05-14T04:23:54;10.25;;;6.35;;
37047;SDS011;23227;48.780;9.210;2023-05-14T04:26:58;9.13;;;6.27;;
37047;SDS011;23227;48.780;9.210;2023-05-14T04:30:01;7.73;;;5.73;;
37047;SDS011;23227;48.780;9.210;2023-05-14T04:33:04;10.13;;;6.45;;
37047;SDS011;23227;48.780;9.210;2023-05-14T04:36:07;10.98;;;6.95;;
37047;SDS011;23227;48.780;9.210;2023-05-14T04:39:10;10.07;;;6.10;;
37047;SDS011;23227;48.780;9.210;2023-05-14T04:42:14;11.32;;;6.22;;
37047;SDS011;23227;48.780;9.210;2023-05-14T04:45:17;8.97;;;5.77;;
37047;SDS011;23227;48.780;9.210;2023-05-14T04:48:20;11.07;;;6.43;;
37047;SDS011;23227;48.780;9.210;2023-05-14T04:51:22;8.33;;;5.50;;
37047;SDS011;23227;48.780;9.210;2023-05-14T04:54:26;8.23;;;5.87;;
37047;SDS011;23227;48.780;9.210;2023-05-14T04:57:30;9.25;;;5.78;;
37047;SDS011;23227;48.780;9.210;2023-05-14T05:00:33;9.03;;;5.97;;
37047;SDS011;23227;48.780;9.210;2023-05-14T05:03:35;10.32;;;6.43;;
37047;SDS011;23227;48.780;9.210;2023-05-14T05:06:38;7.57;;;5.47;;
37047;SDS011;23227;48.780;9.210;2023-05-14T05:09:41;8.40;;;6.07;;
37047;SDS011;23227;48.780;9.210;2023-05-14T05:12:45;11.15;;;6.55;;
37047;SDS011;23227;48.780;9.210;2023-05-14T05:15:48;8.57;;;5.70;;
37047;SDS011;23227;48.780;9.210;2023-05-14T05:18:51;8.43;;;6.30;;
37047;SDS011;23227;48.780;9.210;2023-05-14T05:21:54;9.02;;;5.80;;
37047;SDS011;23227;48.780;9.210;2023-05-14T05:24:56;7.03;;;6.03;;
37047;SDS011;23227;48.780;9.210;2023-05-14T05:28:01;10.52;;;6.03;;
37047;SDS011;23227;48.780;9.210;2023-05-14T05:31:04;8.50;;;6.27;;
37047;SDS011;23227;48.780;9.210;2023-05-14T05:34:06;8.75;;;5.85;;
37047;SDS011;23227;48.780;9.210;2023-05-14T05:37:09;9.80;;;5.70;;
37047;SDS011;23227;48.780;9.210;2023-05-14T05:40:14;9.60;;;5.77;;
37047;SDS011;23227;48.780;9.210;2023-05-14T05:43:18;11.50;;;6.13;;
37047;SDS011;23227;48.780;9.210;2023-05-14T05:46:21;8.70;;;5.80;;
37047;SDS011;23227;48.780;9.210;2023-05-14T05:49:23;9.27;;;5.80;;
37047;SDS011;23227;48.780;9.210;2023-05-14T05:52:26;10.45;;;5.53;;
37047;SDS011;23227;48.780;9.210;2023-05-14T05:55:29;8.98;;;6.10;;
37047;SDS011;23227;48.780;9.210;2023-05-14T05:58:33;6.45;;;5.30;;
37047;SDS011;23227;48.780;9.210;2023-05-14T06:01:36;9.43;;;5.97;;
37047;SDS011;23227;48.780;9.210;2023-05-14T06:04:41;8.30;;;5.90;;
37047;SDS011;23227;48.780;9.210;2023-05-14T06:07:43;11.13;;;5.77;;
37047;SDS011;23227;48.780;9.210;2023-05-14T06:10:46;8.80;;;5.93;;
37047;SDS011;23227;48.780;9.210;2023-05-14T06:13:50;10.65;;;5.82;;
37047;SDS011;23227;48.780;9.210;2023-05-14T06:16:52;7.60;;;5.43;;
37047;SDS011;23227;48.780;9.210;2023-05-14T06:19:55;8.52;;;5.68;;
37047;SDS011;23227;48.780;9.210;2023-05-14T06:22:58;7.60;;;5.13;;
37047;SDS011;23227;48.780;9.210;2023-05-14T06:26:01;8.68;;;5.63;;
37047;SDS011;23227;48.780;9.210;2023-05-14T06:29:05;9.07;;;6.18;;
37047;SDS011;23227;48.780;9.210;2023-05-14T06:32:07;7.43;;;5.07;;
37047;SDS011;23227;48.780;9.210;2023-05-14T06:35:10;7.35;;;5.20;;
37047;SDS011;23227;48.780;9.210;2023-05-14T06:38:13;6.03;;;5.40;;
37047;SDS011;23227;48.780;9.210;2023-05-14T06:41:16;9.23;;;5.57;;
37047;SDS011;23227;48.780;9.210;2023-05-14T06:44:20;8.55;;;5.32;;
37047;SDS011;23227;48.780;9.210;2023-05-14T06:47:22;8.60;;;5.60;;
37047;SDS011;23227;48.780;9.210;2023-05-14T06:50:26;7.15;;;5.07;;
37047;SDS011;23227;48.780;9.210;2023-05-14T06:53:28;8.30;;;5.17;;
37047;SDS011;23227;48.780;9.210;2023-05-14T06:56:31;8.38;;;5.70;;
37047;SDS011;23227;48.780;9.210;2023-05-14T06:59:35;7.53;;;5.50;;
37047;SDS011;23227;48.780;9.210;2023-05-14T07:02:38;8.67;;;5.40;;
37047;SDS011;23227;48.780;9.210;2023-05-14T07:05:41;7.78;;;5.25;;
37047;SDS011;23227;48.780;9.210;2023-05-14T07:08:45;8.90;;;5.53;;
37047;SDS011;23227;48.780;9.210;2023-05-14T07:11:48;7.18;;;5.15;;
37047;SDS011;23227;48.780;9.210;2023-05-14T07:14:52;9.95;;;5.93;;
37047;SDS011;23227;48.780;9.210;2023-05-14T07:17:54;8.07;;;5.80;;
37047;SDS011;23227;48.780;9.210;2023-05-14T07:20:57;7.50;;;5.28;;
37047;SDS011;23227;48.780;9.210;2023-05-14T07:24:00;9.15;;;5.40;;
37047;SDS011;23227;48.780;9.210;2023-05-14T07:27:03;7.95;;;5.43;;
37047;SDS011;23227;48.780;9.210;2023-05-14T07:30:08;7.40;;;5.03;;
37047;SDS011;23227;48.780;9.210;2023-05-14T07:33:10;7.77;;;4.93;;
37047;SDS011;23227;48.780;9.210;2023-05-14T07:36:13;8.07;;;5.75;;
37047;SDS011;23227;48.780;9.210;2023-05-14T07:39:16;7.70;;;5.72;;
37047;SDS011;23227;48.780;9.210;2023-05-14T07:42:18;8.48;;;5.88;;
37047;SDS011;23227;48.780;9.210;2023-05-14T07:45:37;8.00;;;5.53;;
37047;SDS011;23227;48.780;9.210;2023-05-14T07:48:39;9.20;;;5.93;;
37047;SDS011;23227;48.780;9.210;2023-05-14T07:51:42;7.90;;;6.00;;
37047;SDS011;23227;48.780;9.210;2023-05-14T07:54:45;7.22;;;5.25;;
37047;SDS011;23227;48.780;9.210;2023-05-14T07:57:50;13.27;;;6.40;;
37047;SDS011;23227;48.780;9.210;2023-05-14T08:00:54;7.78;;;5.65;;
37047;SDS011;23227;48.780;9.210;2023-05-14T08:03:57;9.37;;;6.07;;
37047;SDS011;23227;48.780;9.210;2023-05-14T08:07:00;8.32;;;5.93;;
37047;SDS011;23227;48.780;9.210;2023-05-14T08:10:03;7.78;;;5.70;;
37047;SDS011;23227;48.780;9.210;2023-05-14T08:13:08;7.43;;;5.63;;
37047;SDS011;23227;48.780;9.210;2023-05-14T08:16:12;9.27;;;5.97;;
37047;SDS011;23227;48.780;9.210;2023-05-14T08:19:15;8.13;;;5.93;;
37047;SDS011;23227;48.780;9.210;2023-05-14T08:22:18;8.43;;;5.80;;
37047;SDS011;23227;48.780;9.210;2023-05-14T08:25:20;9.65;;;6.18;;
37047;SDS011;23227;48.780;9.210;2023-05-14T08:28:23;8.65;;;5.82;;
37047;SDS011;23227;48.780;9.210;2023-05-14T08:31:27;8.65;;;6.38;;
37047;SDS011;23227;48.780;9.210;2023-05-14T08:34:30;7.13;;;5.03;;
37047;SDS011;23227;48.780;9.210;2023-05-14T08:37:33;8.05;;;5.75;;
37047;SDS011;23227;48.780;9.210;2023-05-14T08:40:35;7.90;;;5.68;;
37047;SDS011;23227;48.780;9.210;2023-05-14T08:43:41;8.98;;;6.32;;
37047;SDS011;23227;48.780;9.210;2023-05-14T08:46:48;10.10;;;6.70;;
37047;SDS011;23227;48.780;9.210;2023-05-14T08:49:51;8.70;;;5.73;;
37047;SDS011;23227;48.780;9.210;2023-05-14T08:52:58;10.80;;;6.20;;
37047;SDS011;23227;48.780;9.210;2023-05-14T08:56:00;8.88;;;6.22;;
37047;SDS011;23227;48.780;9.210;2023-05-14T08:59:04;8.73;;;6.20;;
37047;SDS011;23227;48.780;9.210;2023-05-14T09:02:08;9.40;;;6.85;;
37047;SDS011;23227;48.780;9.210;2023-05-14T09:05:11;8.90;;;6.50;;
37047;SDS011;23227;48.780;9.210;2023-05-14T09:08:14;10.55;;;6.35;;
37047;SDS011;23227;48.780;9.210;2023-05-14T09:11:16;8.02;;;5.50;;
37047;SDS011;23227;48.780;9.210;2023-05-14T09:14:19;9.63;;;6.82;;
37047;SDS011;23227;48.780;9.210;2023-05-14T09:17:25;13.27;;;7.00;;
37047;SDS011;23227;48.780;9.210;2023-05-14T09:20:28;8.00;;;6.57;;
37047;SDS011;23227;48.780;9.210;2023-05-14T09:23:32;11.10;;;6.10;;
37047;SDS011;23227;48.780;9.210;2023-05-14T09:26:35;11.45;;;6.25;;
37047;SDS011;23227;48.780;9.210;2023-05-14T09:29:37;8.18;;;5.75;;
37047;SDS011;23227;48.780;9.210;2023-05-14T09:32:42;9.30;;;6.18;;
37047;SDS011;23227;48.780;9.210;2023-05-14T09:35:46;9.23;;;6.57;;
37047;SDS011;23227;48.780;9.210;2023-05-14T09:38:49;9.27;;;6.78;;
37047;SDS011;23227;48.780;9.210;2023-05-14T09:41:51;10.63;;;7.28;;
37047;SDS011;23227;48.780;9.210;2023-05-14T09:47:59;7.27;;;5.40;;
37047;SDS011;23227;48.780;9.210;2023-05-14T09:51:03;7.17;;;5.33;;
37047;SDS011;23227;48.780;9.210;2023-05-14T09:54:07;6.40;;;4.63;;
37047;SDS011;23227;48.780;9.210;2023-05-14T09:57:10;8.50;;;5.00;;
37047;SDS011;23227;48.780;9.210;2023-05-14T10:00:13;6.65;;;4.45;;
37047;SDS011;23227;48.780;9.210;2023-05-14T10:03:18;9.23;;;5.73;;
37047;SDS011;23227;48.780;9.210;2023-05-14T10:06:23;6.87;;;4.77;;
37047;SDS011;23227;48.780;9.210;2023-05-14T10:09:29;7.47;;;4.77;;
37047;SDS011;23227;48.780;9.210;2023-05-14T10:12:32;6.03;;;4.30;;
37047;SDS011;23227;48.780;9.210;2023-05-14T10:15:36;6.00;;;4.43;;
37047;SDS011;23227;48.780;9.210;2023-05-14T10:18:42;9.00;;;5.07;;
37047;SDS011;23227;48.780;9.210;2023-05-14T10:21:51;7.87;;;4.70;;
37047;SDS011;23227;48.780;9.210;2023-05-14T10:24:55;7.00;;;5.23;;
37047;SDS011;23227;48.780;9.210;2023-05-14T10:27:57;6.63;;;4.45;;
37047;SDS011;23227;48.780;9.210;2023-05-14T10:31:00;6.50;;;4.80;;
37047;SDS011;23227;48.780;9.210;2023-05-14T10:34:04;8.05;;;5.35;;
37047;SDS011;23227;48.780;9.210;2023-05-14T10:37:33;6.27;;;4.70;;
37047;SDS011;23227;48.780;9.210;2023-05-14T10:40:36;5.78;;;4.50;;
37047;SDS011;23227;48.780;9.210;2023-05-14T10:43:40;8.93;;;4.20;;
37047;SDS011;23227;48.780;9.210;2023-05-14T10:46:43;9.18;;;4.72;;
37047;SDS011;23227;48.780;9.210;2023-05-14T10:49:47;8.20;;;4.63;;
37047;SDS011;23227;48.780;9.210;2023-05-14T10:52:50;3.80;;;3.30;;
37047;SDS011;23227;48.780;9.210;2023-05-14T10:55:55;6.00;;;3.83;;
37047;SDS011;23227;48.780;9.210;2023-05-14T10:58:57;5.28;;;4.20;;
37047;SDS011;23227;48.780;9.210;2023-05-14T11:02:03;6.67;;;4.43;;
37047;SDS011;23227;48.780;9.210;2023-05-14T11:05:08;5.43;;;4.03;;
37047;SDS011;23227;48.780;9.210;2023-05-14T11:08:14;6.97;;;5.07;;
37047;SDS011;23227;48.780;9.210;2023-05-14T11:11:17;6.85;;;4.70;;
37047;SDS011;23227;48.780;9.210;2023-05-14T11:17:22;7.83;;;4.80;;
37047;SDS011;23227;48.780;9.210;2023-05-14T11:20:27;6.47;;;4.97;;
37047;SDS011;23227;48.780;9.210;2023-05-14T11:23:32;6.43;;;4.70;;
37047;SDS011;23227;48.780;9.210;2023-05-14T11:26:35;6.78;;;5.10;;
37047;SDS011;23227;48.780;9.210;2023-05-14T11:29:39;6.18;;;4.40;;
37047;SDS011;23227;48.780;9.210;2023-05-14T11:32:46;8.73;;;4.50;;
37047;SDS011;23227;48.780;9.210;2023-05-14T11:35:51;5.93;;;4.27;;
37047;SDS011;23227;48.780;9.210;2023-05-14T11:38:54;5.97;;;4.23;;
37047;SDS011;23227;48.780;9.210;2023-05-14T11:41:56;7.53;;;4.38;;
37047;SDS011;23227;48.780;9.210;2023-05-14T11:44:59;9.48;;;4.55;;
37047;SDS011;23227;48.780;9.210;2023-05-14T11:48:10;5.60;;;4.18;;
37047;SDS011;23227;48.780;9.210;2023-05-14T11:51:14;4.60;;;3.63;;
37047;SDS011;23227;48.780;9.210;2023-05-14T11:54:17;5.97;;;4.17;;
37047;SDS011;23227;48.780;9.210;2023-05-14T11:57:20;4.53;;;3.20;;
37047;SDS011;23227;48.780;9.210;2023-05-14T12:00:25;6.67;;;4.10;;
37047;SDS011;23227;48.780;9.210;2023-05-14T12:03:28;6.50;;;4.13;;
37047;SDS011;23227;48.780;9.210;2023-05-14T12:06:33;8.17;;;3.80;;
37047;SDS011;23227;48.780;9.210;2023-05-14T12:09:37;4.60;;;3.80;;
37047;SDS011;23227;48.780;9.210;2023-05-14T12:12:44;11.47;;;4.10;;
37047;SDS011;23227;48.780;9.210;2023-05-14T12:15:53;5.07;;;3.47;;
37047;SDS011;23227;48.780;9.210;2023-05-14T12:18:58;4.43;;;3.90;;
37047;SDS011;23227;48.780;9.210;2023-05-14T12:22:02;4.67;;;3.10;;
37047;SDS011;23227;48.780;9.210;2023-05-14T12:25:09;5.43;;;3.00;;
37047;SDS011;23227;48.780;9.210;2023-05-14T12:28:14;5.20;;;3.07;;
37047;SDS011;23227;48.780;9.210;2023-05-14T12:31:16;8.40;;;3.58;;
37047;SDS011;23227;48.780;9.210;2023-05-14T12:34:20;3.77;;;3.00;;
37047;SDS011;23227;48.780;9.210;2023-05-14T12:37:24;3.23;;;2.87;;
37047;SDS011;23227;48.780;9.210;2023-05-14T12:40:30;4.67;;;2.87;;
37047;SDS011;23227;48.780;9.210;2023-05-14T12:43:32;4.05;;;2.60;;
37047;SDS011;23227;48.780;9.210;2023-05-14T12:46:35;3.17;;;2.45;;
37047;SDS011;23227;48.780;9.210;2023-05-14T12:49:38;3.40;;;2.47;;
37047;SDS011;23227;48.780;9.210;2023-05-14T12:52:42;3.35;;;2.78;;
37047;SDS011;23227;48.780;9.210;2023-05-14T12:55:44;4.35;;;2.80;;
37047;SDS011;23227;48.780;9.210;2023-05-14T12:58:47;3.38;;;2.65;;
37047;SDS011;23227;48.780;9.210;2023-05-14T13:01:50;3.65;;;3.00;;
37047;SDS011;23227;48.780;9.210;2023-05-14T13:04:52;4.78;;;2.78;;
37047;SDS011;23227;48.780;9.210;2023-05-14T13:10:59;3.35;;;2.40;;
37047;SDS011;23227;48.780;9.210;2023-05-14T13:14:02;3.55;;;2.28;;
37047;SDS011;23227;48.780;9.210;2023-05-14T13:17:05;2.85;;;2.15;;
37047;SDS011;23227;48.780;9.210;2023-05-14T13:20:08;2.80;;;2.33;;
37047;SDS011;23227;48.780;9.210;2023-05-14T13:23:13;3.80;;;2.60;;
37047;SDS011;23227;48.780;9.210;2023-05-14T13:26:16;3.00;;;2.70;;
37047;SDS011;23227;48.780;9.210;2023-05-14T13:29:18;4.10;;;2.70;;
37047;SDS011;23227;48.780;9.210;2023-05-14T13:32:21;2.63;;;2.17;;
37047;SDS011;23227;48.780;9.210;2023-05-14T13:35:24;3.88;;;2.40;;
37047;SDS011;23227;48.780;9.210;2023-05-14T13:38:28;3.30;;;2.70;;
37047;SDS011;23227;48.780;9.210;2023-05-14T13:41:31;3.33;;;2.50;;
37047;SDS011;23227;48.780;9.210;2023-05-14T13:44:35;3.37;;;2.97;;
37047;SDS011;23227;48.780;9.210;2023-05-14T13:47:38;4.93;;;2.60;;
37047;SDS011;23227;48.780;9.210;2023-05-14T13:53:45;7.00;;;3.37;;
37047;SDS011;23227;48.780;9.210;2023-05-14T13:56:47;5.20;;;2.90;;
37047;SDS011;23227;48.780;9.210;2023-05-14T13:59:50;2.70;;;2.08;;
37047;SDS011;23227;48.780;9.210;2023-05-14T14:02:52;2.47;;;2.10;;
37047;SDS011;23227;48.780;9.210;2023-05-14T14:05:55;3.03;;;2.42;;
37047;SDS011;23227;48.780;9.210;2023-05-14T14:08:59;3.20;;;2.22;;
37047;SDS011;23227;48.780;9.210;2023-05-14T14:12:02;4.27;;;2.90;;
37047;SDS011;23227;48.780;9.210;2023-05-14T14:15:06;2.97;;;2.50;;
37047;SDS011;23227;48.780;9.210;2023-05-14T14:18:09;2.87;;;2.60;;
37047;SDS011;23227;48.780;9.210;2023-05-14T14:21:12;2.88;;;2.17;;
37047;SDS011;23227;48.780;9.210;2023-05-14T14:24:19;4.80;;;2.53;;
37047;SDS011;23227;48.780;9.210;2023-05-14T14:27:22;2.75;;;2.25;;
37047;SDS011;23227;48.780;9.210;2023-05-14T14:30:26;3.88;;;2.50;;
37047;SDS011;23227;48.780;9.210;2023-05-14T14:33:29;2.30;;;2.10;;
37047;SDS011;23227;48.780;9.210;2023-05-14T14:36:31;3.65;;;2.50;;
37047;SDS011;23227;48.780;9.210;2023-05-14T14:39:35;2.83;;;2.00;;
37047;SDS011;23227;48.780;9.210;2023-05-14T14:42:38;2.65;;;2.35;;
37047;SDS011;23227;48.780;9.210;2023-05-14T14:45:40;2.70;;;2.30;;
37047;SDS011;23227;48.780;9.210;2023-05-14T14:48:48;3.20;;;2.38;;
37047;SDS011;23227;48.780;9.210;2023-05-14T14:51:50;3.25;;;2.00;;
37047;SDS011;23227;48.780;9.210;2023-05-14T14:54:54;2.50;;;2.20;;
37047;SDS011;23227;48.780;9.210;2023-05-14T14:57:57;2.17;;;1.90;;
37047;SDS011;23227;48.780;9.210;2023-05-14T15:00:59;2.85;;;2.17;;
37047;SDS011;23227;48.780;9.210;2023-05-14T15:04:03;2.10;;;1.70;;
37047;SDS011;23227;48.780;9.210;2023-05-14T15:07:05;2.63;;;1.90;;
37047;SDS011;23227;48.780;9.210;2023-05-14T15:10:09;3.20;;;2.05;;
37047;SDS011;23227;48.780;9.210;2023-05-14T15:13:12;2.55;;;1.73;;
37047;SDS011;23227;48.780;9.210;2023-05-14T15:16:15;4.25;;;1.50;;
37047;SDS011;23227;48.780;9.210;2023-05-14T15:19:19;2.05;;;1.65;;
37047;SDS011;23227;48.780;9.210;2023-05-14T15:22:22;2.42;;;1.77;;
37047;SDS011;23227;48.780;9.210;2023-05-14T15:25:26;3.83;;;2.08;;
37047;SDS011;23227;48.780;9.210;2023-05-14T15:28:29;5.30;;;3.00;;
37047;SDS011;23227;48.780;9.210;2023-05-14T15:31:32;4.35;;;2.53;;
37047;SDS011;23227;48.780;9.210;2023-05-14T15:37:38;4.80;;;2.80;;
37047;SDS011;23227;48.780;9.210;2023-05-14T15:40:43;4.90;;;2.50;;
37047;SDS011;23227;48.780;9.210;2023-05-14T15:43:46;8.43;;;3.20;;
37047;SDS011;23227;48.780;9.210;2023-05-14T15:46:48;6.88;;;3.00;;
37047;SDS011;23227;48.780;9.210;2023-05-14T15:49:51;4.10;;;3.25;;
37047;SDS011;23227;48.780;9.210;2023-05-14T15:52:54;7.43;;;3.40;;
37047;SDS011;23227;48.780;9.210;2023-05-14T15:55:58;7.82;;;3.30;;
37047;SDS011;23227;48.780;9.210;2023-05-14T15:59:00;5.20;;;3.90;;
37047;SDS011;23227;48.780;9.210;2023-05-14T16:02:04;3.92;;;3.38;;
37047;SDS011;23227;48.780;9.210;2023-05-14T16:05:07;7.45;;;3.22;;
37047;SDS011;23227;48.780;9.210;2023-05-14T16:08:10;3.60;;;3.13;;
37047;SDS011;23227;48.780;9.210;2023-05-14T16:11:14;4.97;;;3.17;;
37047;SDS011;23227;48.780;9.210;2023-05-14T16:14:17;4.43;;;2.90;;
37047;SDS011;23227;48.780;9.210;2023-05-14T16:17:19;3.65;;;2.45;;
37047;SDS011;23227;48.780;9.210;2023-05-14T16:20:23;3.45;;;2.45;;
37047;SDS011;23227;48.780;9.210;2023-05-14T16:26:29;2.53;;;2.20;;
37047;SDS011;23227;48.780;9.210;2023-05-14T16:29:32;4.20;;;2.08;;
37047;SDS011;23227;48.780;9.210;2023-05-14T16:32:35;3.65;;;2.15;;
37047;SDS011;23227;48.780;9.210;2023-05-14T16:35:38;4.13;;;2.50;;
37047;SDS011;23227;48.780;9.210;2023-05-14T16:38:41;2.75;;;2.35;;
37047;SDS011;23227;48.780;9.210;2023-05-14T16:42:06;3.08;;;2.13;;
37047;SDS011;23227;48.780;9.210;2023-05-14T16:45:09;4.57;;;2.17;;
37047;SDS011;23227;48.780;9.210;2023-05-14T16:48:12;2.95;;;2.20;;
37047;SDS011;23227;48.780;9.210;2023-05-14T16:51:15;4.38;;;3.50;;
37047;SDS011;23227;48.780;9.210;2023-05-14T16:54:18;5.15;;;2.90;;
37047;SDS011;23227;48.780;9.210;2023-05-14T16:57:22;4.38;;;2.53;;
37047;SDS011;23227;48.780;9.210;2023-05-14T17:00:25;2.72;;;2.00;;
37047;SDS011;23227;48.780;9.210;2023-05-14T17:03:28;2.50;;;2.17;;
37047;SDS011;23227;48.780;9.210;2023-05-14T17:06:30;5.47;;;2.42;;
37047;SDS011;23227;48.780;9.210;2023-05-14T17:09:33;2.22;;;1.90;;
37047;SDS011;23227;48.780;9.210;2023-05-14T17:15:40;2.13;;;1.92;;
37047;SDS011;23227;48.780;9.210;2023-05-14T17:18:42;2.88;;;2.45;;
37047;SDS011;23227;48.780;9.210;2023-05-14T17:21:46;2.70;;;2.13;;
37047;SDS011;23227;48.780;9.210;2023-05-14T17:24:48;3.30;;;2.50;;
37047;SDS011;23227;48.780;9.210;2023-05-14T17:27:52;3.55;;;2.03;;
37047;SDS011;23227;48.780;9.210;2023-05-14T17:30:55;3.10;;;2.67;;
37047;SDS011;23227;48.780;9.210;2023-05-14T17:33:58;5.20;;;2.78;;
37047;SDS011;23227;48.780;9.210;2023-05-14T17:37:01;2.70;;;2.42;;
37047;SDS011;23227;48.780;9.210;2023-05-14T17:40:04;4.22;;;2.60;;
37047;SDS011;23227;48.780;9.210;2023-05-14T17:43:08;4.03;;;2.97;;
37047;SDS011;23227;48.780;9.210;2023-05-14T17:46:11;3.53;;;2.40;;
37047;SDS011;23227;48.780;9.210;2023-05-14T17:49:14;4.25;;;2.90;;
37047;SDS011;23227;48.780;9.210;2023-05-14T17:52:16;5.00;;;2.85;;
37047;SDS011;23227;48.780;9.210;2023-05-14T17:55:19;8.02;;;3.50;;
37047;SDS011;23227;48.780;9.210;2023-05-14T17:58:24;4.55;;;3.13;;
37047;SDS011;23227;48.780;9.210;2023-05-14T18:01:26;4.53;;;3.07;;
37047;SDS011;23227;48.780;9.210;2023-05-14T18:04:29;5.95;;;3.10;;
37047;SDS011;23227;48.780;9.210;2023-05-14T18:07:32;5.05;;;3.08;;
37047;SDS011;23227;48.780;9.210;2023-05-14T18:10:34;5.97;;;4.00;;
37047;SDS011;23227;48.780;9.210;2023-05-14T18:13:39;5.50;;;3.42;;
37047;SDS011;23227;48.780;9.210;2023-05-14T18:16:42;5.73;;;3.57;;
37047;SDS011;23227;48.780;9.210;2023-05-14T18:19:44;5.25;;;3.35;;
37047;SDS011;23227;48.780;9.210;2023-05-14T18:22:47;5.88;;;3.47;;
37047;SDS011;23227;48.780;9.210;2023-05-14T18:25:50;5.17;;;3.23;;
37047;SDS011;23227;48.780;9.210;2023-05-14T18:28:54;7.75;;;3.97;;
37047;SDS011;23227;48.780;9.210;2023-05-14T18:31:58;7.33;;;3.57;;
37047;SDS011;23227;48.780;9.210;2023-05-14T18:35:01;7.23;;;4.00;;
37047;SDS011;23227;48.780;9.210;2023-05-14T18:38:07;9.43;;;3.70;;
37047;SDS011;23227;48.780;9.210;2023-05-14T18:41:11;5.63;;;3.60;;
37047;SDS011;23227;48.780;9.210;2023-05-14T18:44:14;6.30;;;3.97;;